sensor_id;sensor_type;location;lat;lon;timestamp;temperature;humidity
68139;DHT22;54940;50.842;4.410;2023-01-15T00:03:50;8.60;99.90
68139;DHT22;54940;50.842;4.410;2023-01-15T00:06:16;8.50;99.90
68139;DHT22;54940;50.842;4.410;2023-01-15T00:08:42;8.40;99.90
68139;DHT22;54940;50.842;4.410;2023-01-15T00:11:08;8.40;99.90
68139;DHT22;54940;50.842;4.410;2023-01-15T00:13:34;8.50;99.90
68139;DHT22;54940;50.842;4.410;2023-01-15T00:16:18;8.50;99.90
68139;DHT22;54940;50.842;4.410;2023-01-15T00:18:49;8.40;99.90
68139;DHT22;54940;50.842;4.410;2023-01-15T00:21:16;8.40;99.90
68139;DHT22;54940;50.842;4.410;2023-01-15T00:23:42;8.50;99.90
68139;DHT22;54940;50.842;4.410;2023-01-15T00:26:29;8.50;99.90
68139;DHT22;54940;50.842;4.410;2023-01-15T00:29:14;8.50;99.90
68139;DHT22;54940;50.842;4.410;2023-01-15T00:31:40;8.50;99.90
68139;DHT22;54940;50.842;4.410;2023-01-15T00:34:06;8.50;99.90
68139;DHT22;54940;50.842;4.410;2023-01-15T00:36:32;8.50;99.90
68139;DHT22;54940;50.842;4.410;2023-01-15T00:38:59;8.60;99.90
68139;DHT22;54940;50.842;4.410;2023-01-15T00:41:25;8.50;99.90
68139;DHT22;54940;50.842;4.410;2023-01-15T00:43:51;8.50;99.90
68139;DHT22;54940;50.842;4.410;2023-01-15T00:46:18;8.50;99.90
68139;DHT22;54940;50.842;4.410;2023-01-15T00:48:44;8.40;99.90
68139;DHT22;54940;50.842;4.410;2023-01-15T00:51:09;8.40;99.90
68139;DHT22;54940;50.842;4.410;2023-01-15T00:53:35;8.40;99.90
68139;DHT22;54940;50.842;4.410;2023-01-15T00:56:01;8.40;99.90
68139;DHT22;54940;50.842;4.410;2023-01-15T00:58:26;8.40;99.90
68139;DHT22;54940;50.842;4.410;2023-01-15T01:00:56;8.40;99.90
68139;DHT22;54940;50.842;4.410;2023-01-15T01:03:22;8.30;99.90
68139;DHT22;54940;50.842;4.410;2023-01-15T01:05:49;8.40;99.90
68139;DHT22;54940;50.842;4.410;2023-01-15T01:08:15;8.40;99.90
68139;DHT22;54940;50.842;4.410;2023-01-15T01:10:41;8.30;99.90
68139;DHT22;54940;50.842;4.410;2023-01-15T01:13:07;8.40;99.90
68139;DHT22;54940;50.842;4.410;2023-01-15T01:15:33;8.40;99.90
68139;DHT22;54940;50.842;4.410;2023-01-15T01:17:59;8.40;99.90
68139;DHT22;54940;50.842;4.410;2023-01-15T01:20:25;8.30;99.90
68139;DHT22;54940;50.842;4.410;2023-01-15T01:22:51;8.40;99.90
68139;DHT22;54940;50.842;4.410;2023-01-15T01:25:18;8.30;99.90
68139;DHT22;54940;50.842;4.410;2023-01-15T01:27:44;8.30;99.90
68139;DHT22;54940;50.842;4.410;2023-01-15T01:30:11;8.30;99.90
68139;DHT22;54940;50.842;4.410;2023-01-15T01:32:37;8.30;99.90
68139;DHT22;54940;50.842;4.410;2023-01-15T01:35:03;8.30;99.90
68139;DHT22;54940;50.842;4.410;2023-01-15T01:37:29;8.30;99.90
68139;DHT22;54940;50.842;4.410;2023-01-15T01:39:54;8.30;99.90
68139;DHT22;54940;50.842;4.410;2023-01-15T01:42:21;8.30;99.90
68139;DHT22;54940;50.842;4.410;2023-01-15T01:47:18;8.20;99.90
68139;DHT22;54940;50.842;4.410;2023-01-15T01:49:50;8.20;99.90
68139;DHT22;54940;50.842;4.410;2023-01-15T01:52:21;8.20;99.90
68139;DHT22;54940;50.842;4.410;2023-01-15T01:54:49;8.20;99.90
68139;DHT22;54940;50.842;4.410;2023-01-15T01:57:16;8.10;99.90
68139;DHT22;54940;50.842;4.410;2023-01-15T01:59:43;8.20;99.90
68139;DHT22;54940;50.842;4.410;2023-01-15T02:02:09;8.20;99.90
68139;DHT22;54940;50.842;4.410;2023-01-15T02:04:35;8.20;99.90
68139;DHT22;54940;50.842;4.410;2023-01-15T02:07:02;8.20;99.90
68139;DHT22;54940;50.842;4.410;2023-01-15T02:09:28;8.20;99.90
68139;DHT22;54940;50.842;4.410;2023-01-15T02:11:58;8.20;99.90
68139;DHT22;54940;50.842;4.410;2023-01-15T02:14:47;8.20;99.90
68139;DHT22;54940;50.842;4.410;2023-01-15T02:17:30;8.10;99.90
68139;DHT22;54940;50.842;4.410;2023-01-15T02:28:36;8.10;99.90
68139;DHT22;54940;50.842;4.410;2023-01-15T02:33:42;8.00;99.90
68139;DHT22;54940;50.842;4.410;2023-01-15T02:36:12;8.00;99.90
68139;DHT22;54940;50.842;4.410;2023-01-15T02:38:43;8.00;99.90
68139;DHT22;54940;50.842;4.410;2023-01-15T02:41:10;7.90;99.90
68139;DHT22;54940;50.842;4.410;2023-01-15T02:43:44;7.90;99.90
68139;DHT22;54940;50.842;4.410;2023-01-15T02:46:14;7.90;99.90
68139;DHT22;54940;50.842;4.410;2023-01-15T02:48:42;7.90;99.90
68139;DHT22;54940;50.842;4.410;2023-01-15T02:51:13;7.80;99.90
68139;DHT22;54940;50.842;4.410;2023-01-15T02:53:42;7.80;99.90
68139;DHT22;54940;50.842;4.410;2023-01-15T02:56:12;7.80;99.90
68139;DHT22;54940;50.842;4.410;2023-01-15T02:58:40;7.80;99.90
68139;DHT22;54940;50.842;4.410;2023-01-15T03:01:16;7.90;99.90
68139;DHT22;54940;50.842;4.410;2023-01-15T03:06:51;7.80;99.90
68139;DHT22;54940;50.842;4.410;2023-01-15T03:09:20;7.70;99.90
68139;DHT22;54940;50.842;4.410;2023-01-15T03:11:52;7.70;99.90
68139;DHT22;54940;50.842;4.410;2023-01-15T03:17:26;7.70;99.90
68139;DHT22;54940;50.842;4.410;2023-01-15T03:22:51;7.70;99.90
68139;DHT22;54940;50.842;4.410;2023-01-15T03:25:33;7.60;99.90
68139;DHT22;54940;50.842;4.410;2023-01-15T03:28:01;7.70;99.90
68139;DHT22;54940;50.842;4.410;2023-01-15T03:30:28;7.70;99.90
68139;DHT22;54940;50.842;4.410;2023-01-15T03:32:54;7.70;99.90
68139;DHT22;54940;50.842;4.410;2023-01-15T03:35:53;7.70;99.90
68139;DHT22;54940;50.842;4.410;2023-01-15T03:38:34;7.70;99.90
68139;DHT22;54940;50.842;4.410;2023-01-15T03:41:13;7.70;99.90
68139;DHT22;54940;50.842;4.410;2023-01-15T03:43:54;7.70;99.90
68139;DHT22;54940;50.842;4.410;2023-01-15T03:49:02;7.60;99.90
68139;DHT22;54940;50.842;4.410;2023-01-15T03:51:36;7.50;99.90
68139;DHT22;54940;50.842;4.410;2023-01-15T03:54:08;7.40;99.90
68139;DHT22;54940;50.842;4.410;2023-01-15T03:56:50;7.40;99.90
68139;DHT22;54940;50.842;4.410;2023-01-15T03:59:31;7.40;99.90
68139;DHT22;54940;50.842;4.410;2023-01-15T04:02:01;7.40;99.90
68139;DHT22;54940;50.842;4.410;2023-01-15T04:04:28;7.40;99.90
68139;DHT22;54940;50.842;4.410;2023-01-15T04:06:54;7.50;99.90
68139;DHT22;54940;50.842;4.410;2023-01-15T04:09:20;7.40;99.90
68139;DHT22;54940;50.842;4.410;2023-01-15T04:11:47;7.40;99.90
68139;DHT22;54940;50.842;4.410;2023-01-15T04:14:13;7.30;99.90
68139;DHT22;54940;50.842;4.410;2023-01-15T04:16:39;7.30;99.90
68139;DHT22;54940;50.842;4.410;2023-01-15T04:19:05;7.30;99.90
68139;DHT22;54940;50.842;4.410;2023-01-15T04:21:31;7.30;99.90
68139;DHT22;54940;50.842;4.410;2023-01-15T04:23:57;7.30;99.90
68139;DHT22;54940;50.842;4.410;2023-01-15T04:26:22;7.20;99.90
68139;DHT22;54940;50.842;4.410;2023-01-15T04:28:48;7.20;99.90
68139;DHT22;54940;50.842;4.410;2023-01-15T04:31:14;7.20;99.90
68139;DHT22;54940;50.842;4.410;2023-01-15T04:33:40;7.20;99.90
68139;DHT22;54940;50.842;4.410;2023-01-15T04:36:06;7.20;99.90
68139;DHT22;54940;50.842;4.410;2023-01-15T04:38:33;7.20;99.90
68139;DHT22;54940;50.842;4.410;2023-01-15T04:41:01;7.20;99.90
68139;DHT22;54940;50.842;4.410;2023-01-15T04:43:46;7.20;99.90
68139;DHT22;54940;50.842;4.410;2023-01-15T04:46:31;7.30;99.90
68139;DHT22;54940;50.842;4.410;2023-01-15T04:48:57;7.30;99.90
68139;DHT22;54940;50.842;4.410;2023-01-15T04:51:22;7.20;99.90
68139;DHT22;54940;50.842;4.410;2023-01-15T04:53:48;7.10;99.90
68139;DHT22;54940;50.842;4.410;2023-01-15T04:56:14;7.10;99.90
68139;DHT22;54940;50.842;4.410;2023-01-15T04:58:40;7.20;99.90
68139;DHT22;54940;50.842;4.410;2023-01-15T05:01:24;7.00;99.90
68139;DHT22;54940;50.842;4.410;2023-01-15T05:03:50;7.10;99.90
68139;DHT22;54940;50.842;4.410;2023-01-15T05:06:16;7.00;99.90
68139;DHT22;54940;50.842;4.410;2023-01-15T05:08:43;7.00;99.90
68139;DHT22;54940;50.842;4.410;2023-01-15T05:11:09;7.00;99.90
68139;DHT22;54940;50.842;4.410;2023-01-15T05:13:36;7.00;99.90
68139;DHT22;54940;50.842;4.410;2023-01-15T05:16:23;7.00;99.90
68139;DHT22;54940;50.842;4.410;2023-01-15T05:18:50;7.00;99.90
68139;DHT22;54940;50.842;4.410;2023-01-15T05:21:19;7.00;99.90
68139;DHT22;54940;50.842;4.410;2023-01-15T05:23:49;7.00;99.90
68139;DHT22;54940;50.842;4.410;2023-01-15T05:26:15;6.90;99.90
68139;DHT22;54940;50.842;4.410;2023-01-15T05:28:42;7.00;99.90
68139;DHT22;54940;50.842;4.410;2023-01-15T05:31:09;7.00;99.90
68139;DHT22;54940;50.842;4.410;2023-01-15T05:33:36;7.10;99.90
68139;DHT22;54940;50.842;4.410;2023-01-15T05:36:13;7.00;99.90
68139;DHT22;54940;50.842;4.410;2023-01-15T05:38:39;7.00;99.90
68139;DHT22;54940;50.842;4.410;2023-01-15T05:41:07;7.00;99.90
68139;DHT22;54940;50.842;4.410;2023-01-15T05:43:52;6.90;99.90
68139;DHT22;54940;50.842;4.410;2023-01-15T05:46:18;6.90;99.90
68139;DHT22;54940;50.842;4.410;2023-01-15T05:48:44;6.90;99.90
68139;DHT22;54940;50.842;4.410;2023-01-15T05:51:10;6.80;99.90
68139;DHT22;54940;50.842;4.410;2023-01-15T05:53:36;6.90;99.90
68139;DHT22;54940;50.842;4.410;2023-01-15T05:56:02;6.90;99.90
68139;DHT22;54940;50.842;4.410;2023-01-15T05:58:27;6.80;99.90
68139;DHT22;54940;50.842;4.410;2023-01-15T06:00:53;6.70;99.90
68139;DHT22;54940;50.842;4.410;2023-01-15T06:03:21;6.70;99.90
68139;DHT22;54940;50.842;4.410;2023-01-15T06:05:54;6.70;99.90
68139;DHT22;54940;50.842;4.410;2023-01-15T06:08:20;6.60;99.90
68139;DHT22;54940;50.842;4.410;2023-01-15T06:10:47;6.50;99.90
68139;DHT22;54940;50.842;4.410;2023-01-15T06:13:13;6.60;99.90
68139;DHT22;54940;50.842;4.410;2023-01-15T06:15:40;6.50;99.90
68139;DHT22;54940;50.842;4.410;2023-01-15T06:18:06;6.30;99.90
68139;DHT22;54940;50.842;4.410;2023-01-15T06:20:34;6.10;99.90
68139;DHT22;54940;50.842;4.410;2023-01-15T06:23:00;6.10;99.90
68139;DHT22;54940;50.842;4.410;2023-01-15T06:25:26;6.10;99.90
68139;DHT22;54940;50.842;4.410;2023-01-15T06:27:52;6.10;99.90
68139;DHT22;54940;50.842;4.410;2023-01-15T06:30:18;6.10;99.90
68139;DHT22;54940;50.842;4.410;2023-01-15T06:32:43;6.00;99.90
68139;DHT22;54940;50.842;4.410;2023-01-15T06:35:09;6.00;99.90
68139;DHT22;54940;50.842;4.410;2023-01-15T06:37:35;6.00;99.90
68139;DHT22;54940;50.842;4.410;2023-01-15T06:40:01;6.00;99.90
68139;DHT22;54940;50.842;4.410;2023-01-15T06:42:26;6.00;99.90
68139;DHT22;54940;50.842;4.410;2023-01-15T06:45:11;6.00;99.90
68139;DHT22;54940;50.842;4.410;2023-01-15T06:48:09;6.00;99.90
68139;DHT22;54940;50.842;4.410;2023-01-15T06:50:35;6.00;99.90
68139;DHT22;54940;50.842;4.410;2023-01-15T06:53:00;6.00;99.90
68139;DHT22;54940;50.842;4.410;2023-01-15T06:55:26;6.00;99.90
68139;DHT22;54940;50.842;4.410;2023-01-15T06:57:52;6.10;99.90
68139;DHT22;54940;50.842;4.410;2023-01-15T07:00:18;6.10;99.90
68139;DHT22;54940;50.842;4.410;2023-01-15T07:02:43;6.10;99.90
68139;DHT22;54940;50.842;4.410;2023-01-15T07:05:09;6.10;99.90
68139;DHT22;54940;50.842;4.410;2023-01-15T07:07:35;6.10;99.90
68139;DHT22;54940;50.842;4.410;2023-01-15T07:10:00;6.20;99.90
68139;DHT22;54940;50.842;4.410;2023-01-15T07:12:26;6.20;99.90
68139;DHT22;54940;50.842;4.410;2023-01-15T07:14:52;6.20;99.90
68139;DHT22;54940;50.842;4.410;2023-01-15T07:17:18;6.10;99.90
68139;DHT22;54940;50.842;4.410;2023-01-15T07:19:44;6.20;99.90
68139;DHT22;54940;50.842;4.410;2023-01-15T07:22:10;6.20;99.90
68139;DHT22;54940;50.842;4.410;2023-01-15T07:24:36;6.10;99.90
68139;DHT22;54940;50.842;4.410;2023-01-15T07:27:02;6.10;99.90
68139;DHT22;54940;50.842;4.410;2023-01-15T07:29:29;6.10;99.90
68139;DHT22;54940;50.842;4.410;2023-01-15T07:31:55;6.10;99.90
68139;DHT22;54940;50.842;4.410;2023-01-15T07:34:21;6.10;99.90
68139;DHT22;54940;50.842;4.410;2023-01-15T07:36:46;6.10;99.90
68139;DHT22;54940;50.842;4.410;2023-01-15T07:39:12;6.10;99.90
68139;DHT22;54940;50.842;4.410;2023-01-15T07:41:38;6.10;99.90
68139;DHT22;54940;50.842;4.410;2023-01-15T07:44:23;6.10;99.90
68139;DHT22;54940;50.842;4.410;2023-01-15T07:47:19;6.00;99.90
68139;DHT22;54940;50.842;4.410;2023-01-15T07:50:05;5.90;99.90
68139;DHT22;54940;50.842;4.410;2023-01-15T07:52:31;6.00;99.90
68139;DHT22;54940;50.842;4.410;2023-01-15T07:54:57;5.90;99.90
68139;DHT22;54940;50.842;4.410;2023-01-15T07:57:23;6.00;99.90
68139;DHT22;54940;50.842;4.410;2023-01-15T07:59:49;6.00;99.90
68139;DHT22;54940;50.842;4.410;2023-01-15T08:02:15;5.90;99.90
68139;DHT22;54940;50.842;4.410;2023-01-15T08:04:41;5.90;99.90
68139;DHT22;54940;50.842;4.410;2023-01-15T08:07:08;5.90;99.90
68139;DHT22;54940;50.842;4.410;2023-01-15T08:09:33;5.90;99.90
68139;DHT22;54940;50.842;4.410;2023-01-15T08:12:01;5.80;99.90
68139;DHT22;54940;50.842;4.410;2023-01-15T08:14:46;5.90;99.90
68139;DHT22;54940;50.842;4.410;2023-01-15T08:17:37;5.90;99.90
68139;DHT22;54940;50.842;4.410;2023-01-15T08:20:05;5.80;99.90
68139;DHT22;54940;50.842;4.410;2023-01-15T08:22:31;5.80;99.90
68139;DHT22;54940;50.842;4.410;2023-01-15T08:24:57;5.80;99.90
68139;DHT22;54940;50.842;4.410;2023-01-15T08:27:23;5.80;99.90
68139;DHT22;54940;50.842;4.410;2023-01-15T08:29:48;5.80;99.90
68139;DHT22;54940;50.842;4.410;2023-01-15T08:32:14;5.90;99.90
68139;DHT22;54940;50.842;4.410;2023-01-15T08:34:40;5.90;99.90
68139;DHT22;54940;50.842;4.410;2023-01-15T08:37:06;5.90;99.90
68139;DHT22;54940;50.842;4.410;2023-01-15T08:39:31;5.80;99.90
68139;DHT22;54940;50.842;4.410;2023-01-15T08:41:57;5.90;99.90
68139;DHT22;54940;50.842;4.410;2023-01-15T08:44:23;5.90;99.90
68139;DHT22;54940;50.842;4.410;2023-01-15T08:46:51;5.90;99.90
68139;DHT22;54940;50.842;4.410;2023-01-15T08:49:18;5.70;99.90
68139;DHT22;54940;50.842;4.410;2023-01-15T08:51:45;5.70;99.90
68139;DHT22;54940;50.842;4.410;2023-01-15T08:54:14;5.70;99.90
68139;DHT22;54940;50.842;4.410;2023-01-15T08:56:40;5.80;99.90
68139;DHT22;54940;50.842;4.410;2023-01-15T08:59:06;5.80;99.90
68139;DHT22;54940;50.842;4.410;2023-01-15T09:01:33;5.80;99.90
68139;DHT22;54940;50.842;4.410;2023-01-15T09:03:59;5.90;99.90
68139;DHT22;54940;50.842;4.410;2023-01-15T09:06:25;5.90;99.90
68139;DHT22;54940;50.842;4.410;2023-01-15T09:08:51;6.00;99.90
68139;DHT22;54940;50.842;4.410;2023-01-15T09:11:16;5.90;99.90
68139;DHT22;54940;50.842;4.410;2023-01-15T09:13:42;5.80;99.90
68139;DHT22;54940;50.842;4.410;2023-01-15T09:16:08;5.80;99.90
68139;DHT22;54940;50.842;4.410;2023-01-15T09:18:36;5.80;99.90
68139;DHT22;54940;50.842;4.410;2023-01-15T09:21:06;5.90;99.90
68139;DHT22;54940;50.842;4.410;2023-01-15T09:23:32;5.80;99.90
68139;DHT22;54940;50.842;4.410;2023-01-15T09:26:03;5.90;99.90
68139;DHT22;54940;50.842;4.410;2023-01-15T09:28:33;5.80;99.90
68139;DHT22;54940;50.842;4.410;2023-01-15T09:30:59;5.80;99.90
68139;DHT22;54940;50.842;4.410;2023-01-15T09:33:25;5.80;99.90
68139;DHT22;54940;50.842;4.410;2023-01-15T09:35:51;5.80;99.90
68139;DHT22;54940;50.842;4.410;2023-01-15T09:38:19;5.90;99.90
68139;DHT22;54940;50.842;4.410;2023-01-15T09:43:40;5.90;99.90
68139;DHT22;54940;50.842;4.410;2023-01-15T09:46:39;5.90;99.90
68139;DHT22;54940;50.842;4.410;2023-01-15T09:57:01;5.90;99.90
68139;DHT22;54940;50.842;4.410;2023-01-15T09:59:32;5.90;99.90
68139;DHT22;54940;50.842;4.410;2023-01-15T10:02:03;5.90;99.90
68139;DHT22;54940;50.842;4.410;2023-01-15T10:04:53;5.90;99.90
68139;DHT22;54940;50.842;4.410;2023-01-15T10:07:58;5.90;99.90
68139;DHT22;54940;50.842;4.410;2023-01-15T10:10:35;6.00;99.90
68139;DHT22;54940;50.842;4.410;2023-01-15T10:13:22;5.90;99.90
68139;DHT22;54940;50.842;4.410;2023-01-15T10:15:51;5.90;99.90
68139;DHT22;54940;50.842;4.410;2023-01-15T10:18:22;5.90;99.90
68139;DHT22;54940;50.842;4.410;2023-01-15T10:23:36;5.90;99.90
68139;DHT22;54940;50.842;4.410;2023-01-15T10:28:58;6.00;99.90
68139;DHT22;54940;50.842;4.410;2023-01-15T10:31:59;6.00;99.90
68139;DHT22;54940;50.842;4.410;2023-01-15T10:34:59;6.00;99.90
68139;DHT22;54940;50.842;4.410;2023-01-15T10:37:51;5.90;99.90
68139;DHT22;54940;50.842;4.410;2023-01-15T10:43:30;5.80;99.90
68139;DHT22;54940;50.842;4.410;2023-01-15T10:46:02;5.80;99.90
68139;DHT22;54940;50.842;4.410;2023-01-15T10:49:02;5.80;99.90
68139;DHT22;54940;50.842;4.410;2023-01-15T10:59:51;5.90;99.90
68139;DHT22;54940;50.842;4.410;2023-01-15T11:02:30;6.10;99.90
68139;DHT22;54940;50.842;4.410;2023-01-15T11:04:58;6.10;99.90
68139;DHT22;54940;50.842;4.410;2023-01-15T11:07:45;6.20;99.90
68139;DHT22;54940;50.842;4.410;2023-01-15T11:10:13;6.20;99.90
68139;DHT22;54940;50.842;4.410;2023-01-15T11:13:11;6.30;99.90
68139;DHT22;54940;50.842;4.410;2023-01-15T11:15:59;6.30;99.90
68139;DHT22;54940;50.842;4.410;2023-01-15T11:18:44;6.40;99.90
68139;DHT22;54940;50.842;4.410;2023-01-15T11:21:29;6.40;99.90
68139;DHT22;54940;50.842;4.410;2023-01-15T11:23:57;6.40;99.90
68139;DHT22;54940;50.842;4.410;2023-01-15T11:26:31;6.40;99.90
68139;DHT22;54940;50.842;4.410;2023-01-15T11:28:59;6.40;99.90
68139;DHT22;54940;50.842;4.410;2023-01-15T11:31:36;6.50;99.90
68139;DHT22;54940;50.842;4.410;2023-01-15T11:34:04;6.50;99.90
68139;DHT22;54940;50.842;4.410;2023-01-15T11:36:31;6.50;99.90
68139;DHT22;54940;50.842;4.410;2023-01-15T11:38:57;6.60;99.90
68139;DHT22;54940;50.842;4.410;2023-01-15T11:41:30;6.60;99.90
68139;DHT22;54940;50.842;4.410;2023-01-15T11:44:17;6.70;99.90
68139;DHT22;54940;50.842;4.410;2023-01-15T11:47:01;6.60;99.90
68139;DHT22;54940;50.842;4.410;2023-01-15T11:49:50;6.70;99.90
68139;DHT22;54940;50.842;4.410;2023-01-15T11:52:58;6.70;99.90
68139;DHT22;54940;50.842;4.410;2023-01-15T11:55:25;6.70;99.90
68139;DHT22;54940;50.842;4.410;2023-01-15T11:57:52;6.80;99.90
68139;DHT22;54940;50.842;4.410;2023-01-15T12:00:29;6.90;99.90
68139;DHT22;54940;50.842;4.410;2023-01-15T12:03:00;7.00;99.90
68139;DHT22;54940;50.842;4.410;2023-01-15T12:05:31;6.90;99.90
68139;DHT22;54940;50.842;4.410;2023-01-15T12:08:02;6.90;99.90
68139;DHT22;54940;50.842;4.410;2023-01-15T12:17:19;6.80;99.90
68139;DHT22;54940;50.842;4.410;2023-01-15T12:22:54;6.90;99.90
68139;DHT22;54940;50.842;4.410;2023-01-15T12:25:32;7.00;99.90
68139;DHT22;54940;50.842;4.410;2023-01-15T12:28:29;7.00;99.90
68139;DHT22;54940;50.842;4.410;2023-01-15T12:31:03;7.00;99.90
68139;DHT22;54940;50.842;4.410;2023-01-15T12:33:57;7.00;99.90
68139;DHT22;54940;50.842;4.410;2023-01-15T12:41:46;6.80;99.90
68139;DHT22;54940;50.842;4.410;2023-01-15T12:44:45;6.80;99.90
68139;DHT22;54940;50.842;4.410;2023-01-15T12:48:07;6.90;99.90
68139;DHT22;54940;50.842;4.410;2023-01-15T13:01:48;7.00;99.90
68139;DHT22;54940;50.842;4.410;2023-01-15T13:04:27;7.00;99.90
68139;DHT22;54940;50.842;4.410;2023-01-15T13:07:40;7.10;99.90
68139;DHT22;54940;50.842;4.410;2023-01-15T13:12:39;7.30;99.90
68139;DHT22;54940;50.842;4.410;2023-01-15T13:15:05;7.20;99.90
68139;DHT22;54940;50.842;4.410;2023-01-15T13:17:58;7.10;99.90
68139;DHT22;54940;50.842;4.410;2023-01-15T13:26:10;7.10;99.90
68139;DHT22;54940;50.842;4.410;2023-01-15T13:28:50;7.10;99.90
68139;DHT22;54940;50.842;4.410;2023-01-15T13:34:16;7.10;99.90
68139;DHT22;54940;50.842;4.410;2023-01-15T13:36:45;7.10;99.90
68139;DHT22;54940;50.842;4.410;2023-01-15T13:39:21;7.20;99.90
68139;DHT22;54940;50.842;4.410;2023-01-15T13:41:52;7.10;99.90
68139;DHT22;54940;50.842;4.410;2023-01-15T13:44:49;7.20;99.90
68139;DHT22;54940;50.842;4.410;2023-01-15T13:47:22;7.10;99.90
68139;DHT22;54940;50.842;4.410;2023-01-15T13:49:55;7.10;99.90
68139;DHT22;54940;50.842;4.410;2023-01-15T13:52:27;7.10;99.90
68139;DHT22;54940;50.842;4.410;2023-01-15T13:54:58;7.00;99.90
68139;DHT22;54940;50.842;4.410;2023-01-15T13:57:34;6.90;99.90
68139;DHT22;54940;50.842;4.410;2023-01-15T14:00:05;6.80;99.90
68139;DHT22;54940;50.842;4.410;2023-01-15T14:02:37;6.90;99.90
68139;DHT22;54940;50.842;4.410;2023-01-15T14:07:48;6.80;99.90
68139;DHT22;54940;50.842;4.410;2023-01-15T14:12:59;6.70;99.90
68139;DHT22;54940;50.842;4.410;2023-01-15T14:15:49;6.60;99.90
68139;DHT22;54940;50.842;4.410;2023-01-15T14:18:21;6.60;99.90
68139;DHT22;54940;50.842;4.410;2023-01-15T14:21:01;6.60;99.90
68139;DHT22;54940;50.842;4.410;2023-01-15T14:23:42;6.70;99.90
68139;DHT22;54940;50.842;4.410;2023-01-15T14:26:30;6.70;99.90
68139;DHT22;54940;50.842;4.410;2023-01-15T14:34:57;6.70;99.90
68139;DHT22;54940;50.842;4.410;2023-01-15T14:39:54;6.70;99.90
68139;DHT22;54940;50.842;4.410;2023-01-15T14:42:27;6.70;99.90
68139;DHT22;54940;50.842;4.410;2023-01-15T14:45:16;6.70;99.90
68139;DHT22;54940;50.842;4.410;2023-01-15T14:47:53;6.70;99.90
68139;DHT22;54940;50.842;4.410;2023-01-15T15:00:57;6.70;99.90
68139;DHT22;54940;50.842;4.410;2023-01-15T15:03:33;6.70;99.90
68139;DHT22;54940;50.842;4.410;2023-01-15T15:06:00;6.60;99.90
68139;DHT22;54940;50.842;4.410;2023-01-15T15:08:30;6.60;99.90
68139;DHT22;54940;50.842;4.410;2023-01-15T15:10:57;6.60;99.90
68139;DHT22;54940;50.842;4.410;2023-01-15T15:13:41;6.60;99.90
68139;DHT22;54940;50.842;4.410;2023-01-15T15:21:30;6.50;99.90
68139;DHT22;54940;50.842;4.410;2023-01-15T15:26:34;6.50;99.90
68139;DHT22;54940;50.842;4.410;2023-01-15T15:29:20;6.50;99.90
68139;DHT22;54940;50.842;4.410;2023-01-15T15:31:49;6.60;99.90
68139;DHT22;54940;50.842;4.410;2023-01-15T15:34:32;6.50;99.90
68139;DHT22;54940;50.842;4.410;2023-01-15T15:37:11;6.40;99.90
68139;DHT22;54940;50.842;4.410;2023-01-15T15:39:41;6.40;99.90
68139;DHT22;54940;50.842;4.410;2023-01-15T15:42:22;6.40;99.90
68139;DHT22;54940;50.842;4.410;2023-01-15T15:45:18;6.50;99.90
68139;DHT22;54940;50.842;4.410;2023-01-15T15:48:31;6.50;99.90
68139;DHT22;54940;50.842;4.410;2023-01-15T15:51:31;6.50;99.90
68139;DHT22;54940;50.842;4.410;2023-01-15T15:56:35;6.50;99.90
68139;DHT22;54940;50.842;4.410;2023-01-15T15:59:02;6.50;99.90
68139;DHT22;54940;50.842;4.410;2023-01-15T16:01:35;6.50;99.90
68139;DHT22;54940;50.842;4.410;2023-01-15T16:04:01;6.50;99.90
68139;DHT22;54940;50.842;4.410;2023-01-15T16:06:27;6.40;99.90
68139;DHT22;54940;50.842;4.410;2023-01-15T16:08:57;6.50;99.90
68139;DHT22;54940;50.842;4.410;2023-01-15T16:11:30;6.50;99.90
68139;DHT22;54940;50.842;4.410;2023-01-15T16:14:00;6.40;99.90
68139;DHT22;54940;50.842;4.410;2023-01-15T16:16:28;6.20;99.90
68139;DHT22;54940;50.842;4.410;2023-01-15T16:18:56;6.20;99.90
68139;DHT22;54940;50.842;4.410;2023-01-15T16:24:03;6.10;99.90
68139;DHT22;54940;50.842;4.410;2023-01-15T16:26:44;6.10;99.90
68139;DHT22;54940;50.842;4.410;2023-01-15T16:29:18;6.20;99.90
68139;DHT22;54940;50.842;4.410;2023-01-15T16:31:44;6.10;99.90
68139;DHT22;54940;50.842;4.410;2023-01-15T16:34:30;6.10;99.90
68139;DHT22;54940;50.842;4.410;2023-01-15T16:36:57;6.10;99.90
68139;DHT22;54940;50.842;4.410;2023-01-15T16:39:27;6.10;99.90
68139;DHT22;54940;50.842;4.410;2023-01-15T16:41:55;6.20;99.90
68139;DHT22;54940;50.842;4.410;2023-01-15T16:44:39;6.10;99.90
68139;DHT22;54940;50.842;4.410;2023-01-15T16:47:25;6.10;99.90
68139;DHT22;54940;50.842;4.410;2023-01-15T16:49:52;6.20;99.90
68139;DHT22;54940;50.842;4.410;2023-01-15T16:52:46;6.10;99.90
68139;DHT22;54940;50.842;4.410;2023-01-15T16:55:40;6.10;99.90
68139;DHT22;54940;50.842;4.410;2023-01-15T17:00:45;6.10;99.90
68139;DHT22;54940;50.842;4.410;2023-01-15T17:03:30;6.20;99.90
68139;DHT22;54940;50.842;4.410;2023-01-15T17:05:59;6.20;99.90
68139;DHT22;54940;50.842;4.410;2023-01-15T17:08:35;6.10;99.90
68139;DHT22;54940;50.842;4.410;2023-01-15T17:11:08;6.00;99.90
68139;DHT22;54940;50.842;4.410;2023-01-15T17:13:41;5.90;99.90
68139;DHT22;54940;50.842;4.410;2023-01-15T17:18:41;5.90;99.90
68139;DHT22;54940;50.842;4.410;2023-01-15T17:21:14;5.90;99.90
68139;DHT22;54940;50.842;4.410;2023-01-15T17:23:42;5.90;99.90
68139;DHT22;54940;50.842;4.410;2023-01-15T17:26:27;5.60;99.90
68139;DHT22;54940;50.842;4.410;2023-01-15T17:28:53;5.50;99.90
68139;DHT22;54940;50.842;4.410;2023-01-15T17:33:50;5.50;99.90
68139;DHT22;54940;50.842;4.410;2023-01-15T17:36:17;5.60;99.90
68139;DHT22;54940;50.842;4.410;2023-01-15T17:38:43;5.60;99.90
68139;DHT22;54940;50.842;4.410;2023-01-15T17:41:14;5.70;99.90
68139;DHT22;54940;50.842;4.410;2023-01-15T17:43:40;5.80;99.90
68139;DHT22;54940;50.842;4.410;2023-01-15T17:46:07;5.90;99.90
68139;DHT22;54940;50.842;4.410;2023-01-15T17:48:32;5.90;99.90
68139;DHT22;54940;50.842;4.410;2023-01-15T17:50:59;6.00;99.90
68139;DHT22;54940;50.842;4.410;2023-01-15T17:53:26;6.00;99.90
68139;DHT22;54940;50.842;4.410;2023-01-15T17:55:52;6.00;99.90
68139;DHT22;54940;50.842;4.410;2023-01-15T17:58:36;6.00;99.90
68139;DHT22;54940;50.842;4.410;2023-01-15T18:01:23;6.10;99.90
68139;DHT22;54940;50.842;4.410;2023-01-15T18:04:19;6.20;99.90
68139;DHT22;54940;50.842;4.410;2023-01-15T18:07:06;6.20;99.90
68139;DHT22;54940;50.842;4.410;2023-01-15T18:09:34;6.20;99.90
68139;DHT22;54940;50.842;4.410;2023-01-15T18:12:00;6.20;99.90
68139;DHT22;54940;50.842;4.410;2023-01-15T18:14:26;6.20;99.90
68139;DHT22;54940;50.842;4.410;2023-01-15T18:16:51;6.30;99.90
68139;DHT22;54940;50.842;4.410;2023-01-15T18:19:17;6.30;99.90
68139;DHT22;54940;50.842;4.410;2023-01-15T18:21:43;6.30;99.90
68139;DHT22;54940;50.842;4.410;2023-01-15T18:24:09;6.40;99.90
68139;DHT22;54940;50.842;4.410;2023-01-15T18:26:40;6.40;99.90
68139;DHT22;54940;50.842;4.410;2023-01-15T18:29:07;6.40;99.90
68139;DHT22;54940;50.842;4.410;2023-01-15T18:31:34;6.40;99.90
68139;DHT22;54940;50.842;4.410;2023-01-15T18:34:00;6.40;99.90